Generic selectors
Exact matches only
Search in title
Search in content
Post Type Selectors
Retour à l'actu

LFPG

METAR

LFPG 011900Z 27011KT CAVOK 08/02 Q1028 NOSIG

TAF

LFPG 011700Z
  • | 0118/0224 27012KT CAVOK TX10/0214Z TN04/0206Z
  • | PROB30 TEMPO 0205/0208 BKN006
  • | PROB40 TEMPO 0217/0224 BKN012